Terminal Aerodrome Forecast
Issued by NWS

Home | Current Version | Previous Version | Text Only | Print | Product List | Glossary On
Versions: 1 2 3 4 5 6 7 8 9 10 11 12 13 14 15 16 17 18 19 20 21 22 23 24 25 26
000
FTUS46 KLOX 190500
TAFLAX
TAF
KLAX 190532Z 1906/2012 26006KT P6SM BKN200
     FM191100 VRB03KT P6SM OVC015
     FM191800 26010KT P6SM SCT250
     FM200400 VRB03KT P6SM SCT250
     FM201000 VRB03KT P6SM OVC008=

USA.gov is the U.S. government's official web portal to all federal, state and local government web resources and services.